sensor_id;sensor_type;location;lat;lon;timestamp;P1;durP1;ratioP1;P2;durP2;ratioP2
20972;SDS011;10645;52.370;13.314;2022-12-16T00:01:39;4.43;;;3.90;;
20972;SDS011;10645;52.370;13.314;2022-12-16T00:04:06;1.27;;;1.17;;
20972;SDS011;10645;52.370;13.314;2022-12-16T00:06:32;5.77;;;5.27;;
20972;SDS011;10645;52.370;13.314;2022-12-16T00:08:59;3.00;;;2.83;;
20972;SDS011;10645;52.370;13.314;2022-12-16T00:11:26;4.83;;;4.57;;
20972;SDS011;10645;52.370;13.314;2022-12-16T00:13:52;5.53;;;3.80;;
20972;SDS011;10645;52.370;13.314;2022-12-16T00:16:18;7.33;;;3.37;;
20972;SDS011;10645;52.370;13.314;2022-12-16T00:18:45;5.63;;;5.13;;
20972;SDS011;10645;52.370;13.314;2022-12-16T00:21:12;9.07;;;4.20;;
20972;SDS011;10645;52.370;13.314;2022-12-16T00:23:39;5.23;;;3.03;;
20972;SDS011;10645;52.370;13.314;2022-12-16T00:26:06;8.40;;;3.83;;
20972;SDS011;10645;52.370;13.314;2022-12-16T00:28:33;4.57;;;3.20;;
20972;SDS011;10645;52.370;13.314;2022-12-16T00:30:59;3.67;;;3.43;;
20972;SDS011;10645;52.370;13.314;2022-12-16T00:33:26;6.37;;;6.07;;
20972;SDS011;10645;52.370;13.314;2022-12-16T00:35:52;3.07;;;2.87;;
20972;SDS011;10645;52.370;13.314;2022-12-16T00:38:19;3.73;;;3.50;;
20972;SDS011;10645;52.370;13.314;2022-12-16T00:40:46;1.93;;;1.83;;
20972;SDS011;10645;52.370;13.314;2022-12-16T00:43:13;4.37;;;4.17;;
20972;SDS011;10645;52.370;13.314;2022-12-16T00:45:39;9.00;;;7.03;;
20972;SDS011;10645;52.370;13.314;2022-12-16T00:48:05;3.03;;;2.83;;
20972;SDS011;10645;52.370;13.314;2022-12-16T00:50:32;4.90;;;4.53;;
20972;SDS011;10645;52.370;13.314;2022-12-16T00:52:59;2.23;;;2.00;;
20972;SDS011;10645;52.370;13.314;2022-12-16T00:55:25;6.00;;;4.07;;
20972;SDS011;10645;52.370;13.314;2022-12-16T00:57:51;3.27;;;3.07;;
20972;SDS011;10645;52.370;13.314;2022-12-16T01:00:17;3.67;;;3.50;;
20972;SDS011;10645;52.370;13.314;2022-12-16T01:02:45;5.10;;;4.70;;
20972;SDS011;10645;52.370;13.314;2022-12-16T01:05:13;2.90;;;2.30;;
20972;SDS011;10645;52.370;13.314;2022-12-16T01:07:41;3.03;;;2.83;;
20972;SDS011;10645;52.370;13.314;2022-12-16T01:10:08;2.83;;;2.67;;
20972;SDS011;10645;52.370;13.314;2022-12-16T01:12:35;3.23;;;3.10;;
20972;SDS011;10645;52.370;13.314;2022-12-16T01:15:03;6.23;;;5.73;;
20972;SDS011;10645;52.370;13.314;2022-12-16T01:17:30;5.07;;;4.37;;
20972;SDS011;10645;52.370;13.314;2022-12-16T01:19:56;3.47;;;3.20;;
20972;SDS011;10645;52.370;13.314;2022-12-16T01:22:22;3.40;;;1.70;;
20972;SDS011;10645;52.370;13.314;2022-12-16T01:24:48;4.70;;;4.37;;
20972;SDS011;10645;52.370;13.314;2022-12-16T01:27:14;3.37;;;2.33;;
20972;SDS011;10645;52.370;13.314;2022-12-16T01:29:41;8.80;;;7.77;;
20972;SDS011;10645;52.370;13.314;2022-12-16T01:32:08;1.63;;;1.53;;
20972;SDS011;10645;52.370;13.314;2022-12-16T01:34:37;4.77;;;3.27;;
20972;SDS011;10645;52.370;13.314;2022-12-16T01:37:03;3.47;;;3.27;;
20972;SDS011;10645;52.370;13.314;2022-12-16T01:39:29;5.30;;;4.03;;
20972;SDS011;10645;52.370;13.314;2022-12-16T01:41:55;5.70;;;5.20;;
20972;SDS011;10645;52.370;13.314;2022-12-16T01:44:22;5.37;;;5.00;;
20972;SDS011;10645;52.370;13.314;2022-12-16T01:46:50;4.47;;;2.97;;
20972;SDS011;10645;52.370;13.314;2022-12-16T01:49:22;4.93;;;4.63;;
20972;SDS011;10645;52.370;13.314;2022-12-16T01:52:10;3.17;;;2.97;;
20972;SDS011;10645;52.370;13.314;2022-12-16T01:54:41;5.20;;;5.00;;
20972;SDS011;10645;52.370;13.314;2022-12-16T01:57:12;3.63;;;2.07;;
20972;SDS011;10645;52.370;13.314;2022-12-16T01:59:44;3.57;;;3.37;;
20972;SDS011;10645;52.370;13.314;2022-12-16T02:02:14;4.90;;;4.00;;
20972;SDS011;10645;52.370;13.314;2022-12-16T02:04:40;1.07;;;1.07;;
20972;SDS011;10645;52.370;13.314;2022-12-16T02:07:26;0.60;;;0.60;;
20972;SDS011;10645;52.370;13.314;2022-12-16T02:09:52;2.60;;;2.40;;
20972;SDS011;10645;52.370;13.314;2022-12-16T02:12:42;3.90;;;3.33;;
20972;SDS011;10645;52.370;13.314;2022-12-16T02:18:16;4.77;;;3.83;;
20972;SDS011;10645;52.370;13.314;2022-12-16T02:24:00;14.63;;;4.87;;
20972;SDS011;10645;52.370;13.314;2022-12-16T02:32:22;2.43;;;2.23;;
20972;SDS011;10645;52.370;13.314;2022-12-16T02:38:00;4.90;;;4.47;;
20972;SDS011;10645;52.370;13.314;2022-12-16T02:40:43;3.27;;;2.87;;
20972;SDS011;10645;52.370;13.314;2022-12-16T02:46:16;2.10;;;2.10;;
20972;SDS011;10645;52.370;13.314;2022-12-16T02:48:45;4.83;;;3.27;;
20972;SDS011;10645;52.370;13.314;2022-12-16T02:51:11;9.37;;;3.80;;
20972;SDS011;10645;52.370;13.314;2022-12-16T02:53:37;5.37;;;3.20;;
20972;SDS011;10645;52.370;13.314;2022-12-16T02:59:23;2.20;;;2.10;;
20972;SDS011;10645;52.370;13.314;2022-12-16T03:02:02;1.97;;;1.97;;
20972;SDS011;10645;52.370;13.314;2022-12-16T03:04:57;3.20;;;3.00;;
20972;SDS011;10645;52.370;13.314;2022-12-16T03:07:41;3.77;;;3.57;;
20972;SDS011;10645;52.370;13.314;2022-12-16T03:10:10;0.80;;;0.80;;
20972;SDS011;10645;52.370;13.314;2022-12-16T03:12:39;2.90;;;2.70;;
20972;SDS011;10645;52.370;13.314;2022-12-16T03:15:08;7.10;;;4.53;;
20972;SDS011;10645;52.370;13.314;2022-12-16T03:17:36;2.67;;;2.57;;
20972;SDS011;10645;52.370;13.314;2022-12-16T03:20:08;5.47;;;5.17;;
20972;SDS011;10645;52.370;13.314;2022-12-16T03:22:37;6.33;;;5.73;;
20972;SDS011;10645;52.370;13.314;2022-12-16T03:25:07;4.17;;;3.93;;
20972;SDS011;10645;52.370;13.314;2022-12-16T03:27:36;6.70;;;6.20;;
20972;SDS011;10645;52.370;13.314;2022-12-16T03:30:18;2.87;;;2.03;;
20972;SDS011;10645;52.370;13.314;2022-12-16T03:32:49;2.50;;;2.40;;
20972;SDS011;10645;52.370;13.314;2022-12-16T03:35:29;3.83;;;3.53;;
20972;SDS011;10645;52.370;13.314;2022-12-16T03:37:59;12.87;;;6.93;;
20972;SDS011;10645;52.370;13.314;2022-12-16T03:40:28;2.27;;;1.70;;
20972;SDS011;10645;52.370;13.314;2022-12-16T03:42:56;3.10;;;2.90;;
20972;SDS011;10645;52.370;13.314;2022-12-16T03:45:24;6.03;;;5.63;;
20972;SDS011;10645;52.370;13.314;2022-12-16T03:47:55;9.17;;;4.67;;
20972;SDS011;10645;52.370;13.314;2022-12-16T03:50:24;0.00;;;0.00;;
20972;SDS011;10645;52.370;13.314;2022-12-16T03:52:54;18.73;;;3.57;;
20972;SDS011;10645;52.370;13.314;2022-12-16T03:55:20;1.80;;;1.70;;
20972;SDS011;10645;52.370;13.314;2022-12-16T03:57:46;10.33;;;5.47;;
20972;SDS011;10645;52.370;13.314;2022-12-16T04:00:12;3.43;;;3.13;;
20972;SDS011;10645;52.370;13.314;2022-12-16T04:02:39;1.13;;;1.13;;
20972;SDS011;10645;52.370;13.314;2022-12-16T04:05:06;1.67;;;1.57;;
20972;SDS011;10645;52.370;13.314;2022-12-16T04:07:33;11.30;;;3.87;;
20972;SDS011;10645;52.370;13.314;2022-12-16T04:09:59;3.00;;;1.60;;
20972;SDS011;10645;52.370;13.314;2022-12-16T04:12:25;3.80;;;3.60;;
20972;SDS011;10645;52.370;13.314;2022-12-16T04:15:10;3.40;;;3.20;;
20972;SDS011;10645;52.370;13.314;2022-12-16T04:17:55;1.13;;;1.13;;
20972;SDS011;10645;52.370;13.314;2022-12-16T04:20:41;5.90;;;5.60;;
20972;SDS011;10645;52.370;13.314;2022-12-16T04:23:29;3.17;;;3.07;;
20972;SDS011;10645;52.370;13.314;2022-12-16T04:26:16;6.20;;;4.87;;
20972;SDS011;10645;52.370;13.314;2022-12-16T04:28:42;9.93;;;8.67;;
20972;SDS011;10645;52.370;13.314;2022-12-16T04:31:08;6.47;;;5.80;;
20972;SDS011;10645;52.370;13.314;2022-12-16T04:33:35;6.27;;;4.73;;
20972;SDS011;10645;52.370;13.314;2022-12-16T04:36:20;3.63;;;3.43;;
20972;SDS011;10645;52.370;13.314;2022-12-16T04:39:04;3.97;;;3.67;;
20972;SDS011;10645;52.370;13.314;2022-12-16T04:41:52;11.97;;;4.80;;
20972;SDS011;10645;52.370;13.314;2022-12-16T04:44:38;0.97;;;0.97;;
20972;SDS011;10645;52.370;13.314;2022-12-16T04:47:23;4.23;;;4.03;;
20972;SDS011;10645;52.370;13.314;2022-12-16T04:50:08;1.73;;;1.73;;
20972;SDS011;10645;52.370;13.314;2022-12-16T04:52:53;1.97;;;1.90;;
20972;SDS011;10645;52.370;13.314;2022-12-16T04:55:37;5.80;;;2.90;;
20972;SDS011;10645;52.370;13.314;2022-12-16T04:58:22;40.05;;;24.48;;
20972;SDS011;10645;52.370;13.314;2022-12-16T05:01:06;29.90;;;23.37;;
20972;SDS011;10645;52.370;13.314;2022-12-16T05:03:51;35.10;;;23.00;;
20972;SDS011;10645;52.370;13.314;2022-12-16T05:06:36;13.13;;;11.97;;
20972;SDS011;10645;52.370;13.314;2022-12-16T05:09:20;7.43;;;6.73;;
20972;SDS011;10645;52.370;13.314;2022-12-16T05:12:05;3.83;;;2.83;;
20972;SDS011;10645;52.370;13.314;2022-12-16T05:14:49;3.43;;;3.13;;
20972;SDS011;10645;52.370;13.314;2022-12-16T05:17:34;1.17;;;1.17;;
20972;SDS011;10645;52.370;13.314;2022-12-16T05:20:19;3.67;;;2.93;;
20972;SDS011;10645;52.370;13.314;2022-12-16T05:23:04;3.53;;;2.97;;
20972;SDS011;10645;52.370;13.314;2022-12-16T05:25:48;2.37;;;2.27;;
20972;SDS011;10645;52.370;13.314;2022-12-16T05:28:33;2.40;;;2.30;;
20972;SDS011;10645;52.370;13.314;2022-12-16T05:31:17;1.03;;;1.03;;
20972;SDS011;10645;52.370;13.314;2022-12-16T05:34:02;4.97;;;4.40;;
20972;SDS011;10645;52.370;13.314;2022-12-16T05:36:47;3.20;;;2.90;;
20972;SDS011;10645;52.370;13.314;2022-12-16T05:39:31;1.87;;;1.77;;
20972;SDS011;10645;52.370;13.314;2022-12-16T05:42:16;7.30;;;5.27;;
20972;SDS011;10645;52.370;13.314;2022-12-16T05:45:00;4.53;;;3.77;;
20972;SDS011;10645;52.370;13.314;2022-12-16T05:47:48;5.53;;;4.60;;
20972;SDS011;10645;52.370;13.314;2022-12-16T05:50:33;2.30;;;2.10;;
20972;SDS011;10645;52.370;13.314;2022-12-16T05:53:17;2.80;;;2.03;;
20972;SDS011;10645;52.370;13.314;2022-12-16T05:56:02;6.67;;;6.37;;
20972;SDS011;10645;52.370;13.314;2022-12-16T05:58:47;3.17;;;3.03;;
20972;SDS011;10645;52.370;13.314;2022-12-16T06:01:32;2.53;;;2.43;;
20972;SDS011;10645;52.370;13.314;2022-12-16T06:04:18;3.13;;;2.23;;
20972;SDS011;10645;52.370;13.314;2022-12-16T06:07:02;6.00;;;5.13;;
20972;SDS011;10645;52.370;13.314;2022-12-16T06:09:47;4.30;;;4.03;;
20972;SDS011;10645;52.370;13.314;2022-12-16T06:12:32;3.80;;;3.67;;
20972;SDS011;10645;52.370;13.314;2022-12-16T06:15:16;7.20;;;1.87;;
20972;SDS011;10645;52.370;13.314;2022-12-16T06:18:01;5.17;;;4.77;;
20972;SDS011;10645;52.370;13.314;2022-12-16T06:20:46;1.40;;;1.37;;
20972;SDS011;10645;52.370;13.314;2022-12-16T06:23:30;3.20;;;3.00;;
20972;SDS011;10645;52.370;13.314;2022-12-16T06:26:15;1.60;;;1.20;;
20972;SDS011;10645;52.370;13.314;2022-12-16T06:28:59;1.83;;;1.80;;
20972;SDS011;10645;52.370;13.314;2022-12-16T06:31:44;3.17;;;2.13;;
20972;SDS011;10645;52.370;13.314;2022-12-16T06:34:29;2.67;;;2.57;;
20972;SDS011;10645;52.370;13.314;2022-12-16T06:37:13;1.40;;;1.37;;
20972;SDS011;10645;52.370;13.314;2022-12-16T06:39:58;2.97;;;1.90;;
20972;SDS011;10645;52.370;13.314;2022-12-16T06:42:43;4.53;;;4.17;;
20972;SDS011;10645;52.370;13.314;2022-12-16T06:45:28;4.03;;;3.83;;
20972;SDS011;10645;52.370;13.314;2022-12-16T06:48:12;3.20;;;2.30;;
20972;SDS011;10645;52.370;13.314;2022-12-16T06:50:57;6.87;;;3.73;;
20972;SDS011;10645;52.370;13.314;2022-12-16T06:53:41;2.43;;;2.07;;
20972;SDS011;10645;52.370;13.314;2022-12-16T06:56:26;11.10;;;6.53;;
20972;SDS011;10645;52.370;13.314;2022-12-16T06:59:11;4.60;;;4.13;;
20972;SDS011;10645;52.370;13.314;2022-12-16T07:01:56;2.30;;;2.20;;
20972;SDS011;10645;52.370;13.314;2022-12-16T07:04:40;1.73;;;1.67;;
20972;SDS011;10645;52.370;13.314;2022-12-16T07:07:25;4.47;;;3.83;;
20972;SDS011;10645;52.370;13.314;2022-12-16T07:10:09;3.40;;;3.23;;
20972;SDS011;10645;52.370;13.314;2022-12-16T07:12:58;1.87;;;1.80;;
20972;SDS011;10645;52.370;13.314;2022-12-16T07:15:44;5.87;;;5.23;;
20972;SDS011;10645;52.370;13.314;2022-12-16T07:18:29;5.93;;;5.37;;
20972;SDS011;10645;52.370;13.314;2022-12-16T07:21:14;3.63;;;3.47;;
20972;SDS011;10645;52.370;13.314;2022-12-16T07:23:58;3.70;;;3.40;;
20972;SDS011;10645;52.370;13.314;2022-12-16T07:26:43;1.93;;;1.33;;
20972;SDS011;10645;52.370;13.314;2022-12-16T07:29:28;1.00;;;1.00;;
20972;SDS011;10645;52.370;13.314;2022-12-16T07:32:12;1.33;;;1.20;;
20972;SDS011;10645;52.370;13.314;2022-12-16T07:34:57;4.93;;;4.07;;
20972;SDS011;10645;52.370;13.314;2022-12-16T07:37:41;4.80;;;3.30;;
20972;SDS011;10645;52.370;13.314;2022-12-16T07:40:26;4.13;;;3.93;;
20972;SDS011;10645;52.370;13.314;2022-12-16T07:43:11;2.10;;;1.97;;
20972;SDS011;10645;52.370;13.314;2022-12-16T07:45:55;5.97;;;3.60;;
20972;SDS011;10645;52.370;13.314;2022-12-16T07:48:40;3.50;;;2.10;;
20972;SDS011;10645;52.370;13.314;2022-12-16T07:51:24;3.60;;;3.30;;
20972;SDS011;10645;52.370;13.314;2022-12-16T07:54:09;3.50;;;3.20;;
20972;SDS011;10645;52.370;13.314;2022-12-16T07:56:53;2.40;;;2.30;;
20972;SDS011;10645;52.370;13.314;2022-12-16T07:59:38;5.80;;;4.97;;
20972;SDS011;10645;52.370;13.314;2022-12-16T08:02:23;2.90;;;2.63;;
20972;SDS011;10645;52.370;13.314;2022-12-16T08:05:08;3.63;;;3.40;;
20972;SDS011;10645;52.370;13.314;2022-12-16T08:07:52;7.10;;;6.63;;
20972;SDS011;10645;52.370;13.314;2022-12-16T08:10:37;7.67;;;3.50;;
20972;SDS011;10645;52.370;13.314;2022-12-16T08:13:21;3.00;;;2.83;;
20972;SDS011;10645;52.370;13.314;2022-12-16T08:16:08;8.33;;;3.67;;
20972;SDS011;10645;52.370;13.314;2022-12-16T08:18:52;4.60;;;4.37;;
20972;SDS011;10645;52.370;13.314;2022-12-16T08:21:37;1.60;;;1.60;;
20972;SDS011;10645;52.370;13.314;2022-12-16T08:24:22;5.30;;;4.80;;
20972;SDS011;10645;52.370;13.314;2022-12-16T08:27:06;4.23;;;1.93;;
20972;SDS011;10645;52.370;13.314;2022-12-16T08:29:51;5.80;;;5.53;;
20972;SDS011;10645;52.370;13.314;2022-12-16T08:32:35;4.40;;;2.53;;
20972;SDS011;10645;52.370;13.314;2022-12-16T08:35:20;4.80;;;3.77;;
20972;SDS011;10645;52.370;13.314;2022-12-16T08:38:04;4.50;;;4.23;;
20972;SDS011;10645;52.370;13.314;2022-12-16T08:40:49;1.20;;;1.20;;
20972;SDS011;10645;52.370;13.314;2022-12-16T08:43:37;0.97;;;0.97;;
20972;SDS011;10645;52.370;13.314;2022-12-16T08:46:22;10.87;;;4.10;;
20972;SDS011;10645;52.370;13.314;2022-12-16T08:49:06;5.13;;;3.83;;
20972;SDS011;10645;52.370;13.314;2022-12-16T08:51:53;3.60;;;3.07;;
20972;SDS011;10645;52.370;13.314;2022-12-16T08:54:37;5.60;;;3.37;;
20972;SDS011;10645;52.370;13.314;2022-12-16T08:57:22;3.50;;;2.70;;
20972;SDS011;10645;52.370;13.314;2022-12-16T09:00:07;5.17;;;4.77;;
20972;SDS011;10645;52.370;13.314;2022-12-16T09:02:59;4.33;;;4.07;;
20972;SDS011;10645;52.370;13.314;2022-12-16T09:05:44;4.13;;;3.47;;
20972;SDS011;10645;52.370;13.314;2022-12-16T09:08:28;9.33;;;8.57;;
20972;SDS011;10645;52.370;13.314;2022-12-16T09:11:13;4.67;;;3.87;;
20972;SDS011;10645;52.370;13.314;2022-12-16T09:13:58;2.40;;;2.30;;
20972;SDS011;10645;52.370;13.314;2022-12-16T09:16:42;10.63;;;9.57;;
20972;SDS011;10645;52.370;13.314;2022-12-16T09:19:27;4.10;;;3.87;;
20972;SDS011;10645;52.370;13.314;2022-12-16T09:22:11;9.20;;;5.77;;
20972;SDS011;10645;52.370;13.314;2022-12-16T09:24:56;9.00;;;8.13;;
20972;SDS011;10645;52.370;13.314;2022-12-16T09:27:40;10.20;;;6.50;;
20972;SDS011;10645;52.370;13.314;2022-12-16T09:30:25;12.37;;;8.27;;
20972;SDS011;10645;52.370;13.314;2022-12-16T09:33:10;8.73;;;8.23;;
20972;SDS011;10645;52.370;13.314;2022-12-16T09:35:54;5.33;;;4.93;;
20972;SDS011;10645;52.370;13.314;2022-12-16T09:38:39;2.90;;;2.67;;
20972;SDS011;10645;52.370;13.314;2022-12-16T09:41:40;17.53;;;11.33;;
20972;SDS011;10645;52.370;13.314;2022-12-16T09:44:45;8.20;;;7.47;;
20972;SDS011;10645;52.370;13.314;2022-12-16T09:47:33;11.43;;;7.20;;
20972;SDS011;10645;52.370;13.314;2022-12-16T09:50:25;9.80;;;8.60;;
20972;SDS011;10645;52.370;13.314;2022-12-16T09:53:12;4.50;;;4.20;;
20972;SDS011;10645;52.370;13.314;2022-12-16T09:55:57;8.17;;;7.47;;
20972;SDS011;10645;52.370;13.314;2022-12-16T09:58:47;8.00;;;6.77;;
20972;SDS011;10645;52.370;13.314;2022-12-16T10:01:36;11.30;;;7.67;;
20972;SDS011;10645;52.370;13.314;2022-12-16T10:04:23;7.23;;;5.93;;
20972;SDS011;10645;52.370;13.314;2022-12-16T10:07:10;4.37;;;4.00;;
20972;SDS011;10645;52.370;13.314;2022-12-16T10:16:53;19.93;;;8.23;;
20972;SDS011;10645;52.370;13.314;2022-12-16T10:22:57;9.90;;;9.17;;
20972;SDS011;10645;52.370;13.314;2022-12-16T10:25:50;7.97;;;7.00;;
20972;SDS011;10645;52.370;13.314;2022-12-16T10:28:46;8.03;;;7.47;;
20972;SDS011;10645;52.370;13.314;2022-12-16T10:31:34;12.37;;;11.20;;
20972;SDS011;10645;52.370;13.314;2022-12-16T10:34:24;7.40;;;6.87;;
20972;SDS011;10645;52.370;13.314;2022-12-16T10:37:21;14.93;;;11.93;;
20972;SDS011;10645;52.370;13.314;2022-12-16T10:40:23;9.70;;;7.27;;
20972;SDS011;10645;52.370;13.314;2022-12-16T10:43:18;14.83;;;10.97;;
20972;SDS011;10645;52.370;13.314;2022-12-16T10:46:13;9.03;;;8.13;;
20972;SDS011;10645;52.370;13.314;2022-12-16T10:49:03;9.57;;;7.20;;
20972;SDS011;10645;52.370;13.314;2022-12-16T10:51:47;11.33;;;7.23;;
20972;SDS011;10645;52.370;13.314;2022-12-16T10:54:34;7.60;;;6.93;;
20972;SDS011;10645;52.370;13.314;2022-12-16T11:03:26;8.80;;;8.03;;
20972;SDS011;10645;52.370;13.314;2022-12-16T11:06:21;13.30;;;7.70;;
20972;SDS011;10645;52.370;13.314;2022-12-16T11:09:21;5.10;;;4.57;;
20972;SDS011;10645;52.370;13.314;2022-12-16T11:12:23;15.43;;;6.70;;
20972;SDS011;10645;52.370;13.314;2022-12-16T11:15:23;8.63;;;7.40;;
20972;SDS011;10645;52.370;13.314;2022-12-16T11:18:09;15.60;;;8.17;;
20972;SDS011;10645;52.370;13.314;2022-12-16T11:21:07;9.50;;;7.83;;
20972;SDS011;10645;52.370;13.314;2022-12-16T11:24:19;13.33;;;5.57;;
20972;SDS011;10645;52.370;13.314;2022-12-16T11:27:15;9.03;;;7.17;;
20972;SDS011;10645;52.370;13.314;2022-12-16T11:33:03;12.07;;;8.83;;
20972;SDS011;10645;52.370;13.314;2022-12-16T11:36:04;9.17;;;8.40;;
20972;SDS011;10645;52.370;13.314;2022-12-16T11:39:12;8.30;;;7.37;;
20972;SDS011;10645;52.370;13.314;2022-12-16T11:42:00;8.93;;;6.83;;
20972;SDS011;10645;52.370;13.314;2022-12-16T11:44:49;8.77;;;8.07;;
20972;SDS011;10645;52.370;13.314;2022-12-16T11:47:56;6.00;;;5.47;;
20972;SDS011;10645;52.370;13.314;2022-12-16T11:50:49;9.87;;;8.13;;
20972;SDS011;10645;52.370;13.314;2022-12-16T11:53:50;12.97;;;7.63;;
20972;SDS011;10645;52.370;13.314;2022-12-16T11:56:43;7.03;;;6.27;;
20972;SDS011;10645;52.370;13.314;2022-12-16T11:59:43;16.07;;;8.97;;
20972;SDS011;10645;52.370;13.314;2022-12-16T12:02:37;8.80;;;7.23;;
20972;SDS011;10645;52.370;13.314;2022-12-16T12:05:41;11.53;;;8.40;;
20972;SDS011;10645;52.370;13.314;2022-12-16T12:08:32;13.93;;;9.97;;
20972;SDS011;10645;52.370;13.314;2022-12-16T12:11:33;8.93;;;8.07;;
20972;SDS011;10645;52.370;13.314;2022-12-16T12:20:08;16.70;;;11.93;;
20972;SDS011;10645;52.370;13.314;2022-12-16T12:22:56;11.87;;;7.70;;
20972;SDS011;10645;52.370;13.314;2022-12-16T12:25:52;13.73;;;9.90;;
20972;SDS011;10645;52.370;13.314;2022-12-16T12:28:46;13.43;;;5.17;;
20972;SDS011;10645;52.370;13.314;2022-12-16T12:31:46;5.33;;;4.87;;
20972;SDS011;10645;52.370;13.314;2022-12-16T12:35:02;4.27;;;3.87;;
20972;SDS011;10645;52.370;13.314;2022-12-16T12:38:26;16.20;;;9.13;;
20972;SDS011;10645;52.370;13.314;2022-12-16T12:41:22;7.43;;;6.93;;
20972;SDS011;10645;52.370;13.314;2022-12-16T12:44:18;13.70;;;6.53;;
20972;SDS011;10645;52.370;13.314;2022-12-16T12:47:18;9.67;;;6.13;;
20972;SDS011;10645;52.370;13.314;2022-12-16T12:55:56;7.43;;;6.63;;
20972;SDS011;10645;52.370;13.314;2022-12-16T12:58:58;7.13;;;5.90;;
20972;SDS011;10645;52.370;13.314;2022-12-16T13:01:48;6.90;;;5.50;;
20972;SDS011;10645;52.370;13.314;2022-12-16T13:04:37;8.30;;;7.60;;
20972;SDS011;10645;52.370;13.314;2022-12-16T13:07:22;7.40;;;6.87;;
20972;SDS011;10645;52.370;13.314;2022-12-16T13:10:28;6.73;;;5.53;;
20972;SDS011;10645;52.370;13.314;2022-12-16T13:16:08;9.77;;;4.13;;
20972;SDS011;10645;52.370;13.314;2022-12-16T13:22:30;8.00;;;7.37;;
20972;SDS011;10645;52.370;13.314;2022-12-16T13:25:32;6.40;;;5.80;;
20972;SDS011;10645;52.370;13.314;2022-12-16T13:28:19;5.07;;;4.57;;
20972;SDS011;10645;52.370;13.314;2022-12-16T13:31:07;8.03;;;7.17;;
20972;SDS011;10645;52.370;13.314;2022-12-16T13:33:52;11.07;;;8.17;;
20972;SDS011;10645;52.370;13.314;2022-12-16T13:36:40;15.20;;;8.47;;
20972;SDS011;10645;52.370;13.314;2022-12-16T13:39:40;13.77;;;8.93;;
20972;SDS011;10645;52.370;13.314;2022-12-16T13:42:31;6.33;;;5.93;;
20972;SDS011;10645;52.370;13.314;2022-12-16T13:48:27;13.20;;;9.00;;
20972;SDS011;10645;52.370;13.314;2022-12-16T13:54:22;10.07;;;7.93;;
20972;SDS011;10645;52.370;13.314;2022-12-16T13:57:22;10.87;;;7.13;;
20972;SDS011;10645;52.370;13.314;2022-12-16T14:00:16;9.80;;;7.27;;
20972;SDS011;10645;52.370;13.314;2022-12-16T14:03:09;9.33;;;8.10;;
20972;SDS011;10645;52.370;13.314;2022-12-16T14:06:01;12.87;;;8.80;;
20972;SDS011;10645;52.370;13.314;2022-12-16T14:08:49;7.50;;;5.50;;
20972;SDS011;10645;52.370;13.314;2022-12-16T14:14:54;9.60;;;7.30;;
20972;SDS011;10645;52.370;13.314;2022-12-16T14:17:55;8.93;;;8.03;;
20972;SDS011;10645;52.370;13.314;2022-12-16T14:21:01;7.00;;;6.47;;
20972;SDS011;10645;52.370;13.314;2022-12-16T14:23:49;11.03;;;6.73;;
20972;SDS011;10645;52.370;13.314;2022-12-16T14:26:42;5.93;;;4.80;;
20972;SDS011;10645;52.370;13.314;2022-12-16T14:29:27;8.17;;;7.07;;
20972;SDS011;10645;52.370;13.314;2022-12-16T14:35:10;8.57;;;7.80;;
20972;SDS011;10645;52.370;13.314;2022-12-16T14:37:57;10.60;;;5.50;;
20972;SDS011;10645;52.370;13.314;2022-12-16T14:40:55;8.67;;;7.90;;
20972;SDS011;10645;52.370;13.314;2022-12-16T14:43:41;15.80;;;7.07;;
20972;SDS011;10645;52.370;13.314;2022-12-16T14:46:27;9.57;;;8.87;;
20972;SDS011;10645;52.370;13.314;2022-12-16T14:49:16;13.77;;;6.17;;
20972;SDS011;10645;52.370;13.314;2022-12-16T14:52:21;6.87;;;6.33;;
20972;SDS011;10645;52.370;13.314;2022-12-16T14:55:15;6.80;;;6.17;;
20972;SDS011;10645;52.370;13.314;2022-12-16T14:58:17;10.27;;;8.27;;
20972;SDS011;10645;52.370;13.314;2022-12-16T15:01:14;7.93;;;6.63;;
20972;SDS011;10645;52.370;13.314;2022-12-16T15:04:05;9.73;;;8.93;;
20972;SDS011;10645;52.370;13.314;2022-12-16T15:06:59;11.23;;;3.97;;
20972;SDS011;10645;52.370;13.314;2022-12-16T15:09:47;6.03;;;5.53;;
20972;SDS011;10645;52.370;13.314;2022-12-16T15:12:40;5.57;;;5.10;;
20972;SDS011;10645;52.370;13.314;2022-12-16T15:18:16;12.90;;;5.80;;
20972;SDS011;10645;52.370;13.314;2022-12-16T15:21:09;16.30;;;8.93;;
20972;SDS011;10645;52.370;13.314;2022-12-16T15:23:54;8.90;;;7.53;;
20972;SDS011;10645;52.370;13.314;2022-12-16T15:26:39;29.53;;;12.57;;
20972;SDS011;10645;52.370;13.314;2022-12-16T15:29:28;9.57;;;6.60;;
20972;SDS011;10645;52.370;13.314;2022-12-16T15:35:22;21.40;;;12.67;;
20972;SDS011;10645;52.370;13.314;2022-12-16T15:41:03;8.13;;;7.20;;
20972;SDS011;10645;52.370;13.314;2022-12-16T15:44:18;11.43;;;6.97;;
20972;SDS011;10645;52.370;13.314;2022-12-16T15:47:05;18.23;;;8.87;;
20972;SDS011;10645;52.370;13.314;2022-12-16T15:50:13;12.67;;;6.03;;
20972;SDS011;10645;52.370;13.314;2022-12-16T15:56:16;15.07;;;7.33;;
20972;SDS011;10645;52.370;13.314;2022-12-16T15:59:23;9.63;;;8.77;;
20972;SDS011;10645;52.370;13.314;2022-12-16T16:05:10;5.43;;;4.87;;
20972;SDS011;10645;52.370;13.314;2022-12-16T16:07:57;5.20;;;4.17;;
20972;SDS011;10645;52.370;13.314;2022-12-16T16:10:43;5.27;;;4.77;;
20972;SDS011;10645;52.370;13.314;2022-12-16T16:13:28;7.93;;;5.20;;
20972;SDS011;10645;52.370;13.314;2022-12-16T16:16:14;10.33;;;9.33;;
20972;SDS011;10645;52.370;13.314;2022-12-16T16:18:59;6.87;;;5.77;;
20972;SDS011;10645;52.370;13.314;2022-12-16T16:21:44;8.07;;;7.47;;
20972;SDS011;10645;52.370;13.314;2022-12-16T16:24:29;7.87;;;6.53;;
20972;SDS011;10645;52.370;13.314;2022-12-16T16:27:13;6.77;;;4.87;;
20972;SDS011;10645;52.370;13.314;2022-12-16T16:30:00;7.47;;;6.63;;
20972;SDS011;10645;52.370;13.314;2022-12-16T16:32:44;8.37;;;7.53;;
20972;SDS011;10645;52.370;13.314;2022-12-16T16:35:30;4.97;;;4.53;;
20972;SDS011;10645;52.370;13.314;2022-12-16T16:38:17;5.50;;;4.63;;
20972;SDS011;10645;52.370;13.314;2022-12-16T16:41:02;7.77;;;7.03;;
20972;SDS011;10645;52.370;13.314;2022-12-16T16:43:47;13.27;;;8.57;;
20972;SDS011;10645;52.370;13.314;2022-12-16T16:46:39;14.20;;;8.20;;
20972;SDS011;10645;52.370;13.314;2022-12-16T16:49:28;10.50;;;9.77;;
20972;SDS011;10645;52.370;13.314;2022-12-16T16:52:16;9.87;;;7.27;;
20972;SDS011;10645;52.370;13.314;2022-12-16T16:55:03;8.93;;;8.30;;
20972;SDS011;10645;52.370;13.314;2022-12-16T16:57:48;12.23;;;10.73;;
20972;SDS011;10645;52.370;13.314;2022-12-16T17:00:33;9.97;;;7.47;;
20972;SDS011;10645;52.370;13.314;2022-12-16T17:03:17;8.10;;;7.30;;
20972;SDS011;10645;52.370;13.314;2022-12-16T17:06:02;9.43;;;5.93;;
20972;SDS011;10645;52.370;13.314;2022-12-16T17:08:47;9.00;;;8.07;;
20972;SDS011;10645;52.370;13.314;2022-12-16T17:11:32;15.97;;;8.93;;
20972;SDS011;10645;52.370;13.314;2022-12-16T17:14:18;15.93;;;10.23;;
20972;SDS011;10645;52.370;13.314;2022-12-16T17:17:04;19.93;;;13.97;;
20972;SDS011;10645;52.370;13.314;2022-12-16T17:19:49;21.93;;;10.93;;
20972;SDS011;10645;52.370;13.314;2022-12-16T17:22:53;9.43;;;8.73;;
20972;SDS011;10645;52.370;13.314;2022-12-16T17:25:38;14.10;;;6.93;;
20972;SDS011;10645;52.370;13.314;2022-12-16T17:28:23;9.30;;;8.43;;
20972;SDS011;10645;52.370;13.314;2022-12-16T17:31:07;7.60;;;7.13;;
20972;SDS011;10645;52.370;13.314;2022-12-16T17:33:53;9.57;;;8.67;;